• Join FlightAware (Why Join?)
  • Login
  • US Flag 
 
12:36PM EST


 

Airport Tracker/Info


-or-


 

Live Flight TrackerFlight Track Log ✈ RPA3253 ✈ 17-Jun-2013 ✈ KCLT - KMSY

Flight Track Log - Related Links

Times and Time Zones

All times are in EDT time to prevent confusion due to time zone crossing. See the RPA3253 flight status page for this flight to view local times or setup timezone preferences in your user account.

Time Position Orientation Groundspeed Altitude Reporting Facility
EDT Latitude Longitude Course Direction KTS MPH feet Rate Location/Type
12:01AM 35.1950 -80.9356 175° South 146 168 1,300  Level Atlanta Center
12:02AM 35.1594 -80.9317 175° South 167 192 2,500 1,920 Climbing Atlanta Center
12:04AM 35.0556 -81.0347 219° Southwest 271 312 6,700 2,280 Climbing Atlanta Center
12:05AM 34.9967 -81.0975 221° Southwest 281 323 9,600 2,820 Climbing Atlanta Center
12:06AM 34.9375 -81.1606 221° Southwest 281 323 12,400 2,520 Climbing Atlanta Center
12:07AM 34.8764 -81.2233 220° Southwest 281 323 14,700 1,800 Climbing Atlanta Center
12:08AM 34.8114 -81.3039 226° Southwest 317 365 16,000 1,440 Climbing Atlanta Center
12:09AM 34.7697 -81.3964 241° Southwest 337 388 17,600 1,620 Climbing Atlanta Center
12:10AM 34.7281 -81.5064 245° Southwest 352 405 19,300 1,860 Climbing Atlanta Center
12:11AM 34.6844 -81.6164 244° Southwest 363 418 21,400 1,800 Climbing Atlanta Center
12:12AM 34.6428 -81.7261 245° Southwest 363 418 22,900 1,200 Climbing Atlanta Center
12:13AM 34.5947 -81.8333 241° Southwest 357 411 23,900 1,080 Climbing Atlanta Center
12:14AM 34.5508 -81.9531 246° West 376 433 25,100 1,260 Climbing Atlanta Center
12:15AM 34.5028 -82.0728 244° Southwest 387 445 26,500 1,140 Climbing Atlanta Center
12:16AM 34.4525 -82.1922 243° Southwest 398 458 27,400 900 Climbing Atlanta Center
12:17AM 34.3981 -82.3319 245° Southwest 409 471 28,400 900 Climbing Atlanta Center
12:18AM 34.3497 -82.4561 245° Southwest 409 471 29,300 960 Climbing Atlanta Center
12:19AM 34.2992 -82.5828 244° Southwest 409 471 30,400 960 Climbing Atlanta Center
12:20AM 34.2481 -82.6942 241° Southwest 414 476 31,300 840 Climbing Atlanta Center
12:21AM 34.2014 -82.8206 246° West 414 476 32,100 840 Climbing Atlanta Center
12:22AM 34.1506 -82.9469 244° Southwest 414 476 33,000 900 Climbing Atlanta Center
12:23AM 34.0972 -83.0681 242° Southwest 409 471 34,000 480 Climbing Atlanta Center
12:24AM 34.0458 -83.1939 244° Southwest 417 480 34,000  Level Atlanta Center
12:25AM 33.9906 -83.3297 244° Southwest 417 480 34,000  Level Atlanta Center
12:26AM 33.9389 -83.4553 244° Southwest 417 480 34,000  Level Atlanta Center
12:27AM 33.8853 -83.5808 243° Southwest 422 486 34,000  Level Atlanta Center
12:28AM 33.8292 -83.7086 242° Southwest 422 486 34,000  Level Atlanta Center
12:29AM 33.7586 -83.8264 234° Southwest 439 505 34,000  Level Atlanta Center
12:30AM 33.6897 -83.9414 234° Southwest 439 505 34,000  Level Atlanta Center
12:31AM 33.6211 -84.0589 235° Southwest 439 505 34,000  Level Atlanta Center
12:32AM 33.5561 -84.1658 234° Southwest 439 505 34,000  Level Atlanta Center
12:33AM 33.4850 -84.2853 235° Southwest 439 505 34,000  Level Atlanta Center
12:34AM 33.4158 -84.4022 235° Southwest 439 505 34,000  Level Atlanta Center
12:35AM 33.3467 -84.5186 235° Southwest 439 505 34,000  Level Atlanta Center
12:36AM 33.2667 -84.6475 233° Southwest 444 511 34,000  Level Atlanta Center
12:37AM 33.1950 -84.7711 235° Southwest 444 511 34,000  Level Atlanta Center
12:38AM 33.1214 -84.8894 233° Southwest 449 517 34,000  Level Atlanta Center
12:39AM 33.0475 -85.0078 233° Southwest 444 511 34,000  Level Atlanta Center
12:40AM 32.9753 -85.1283 234° Southwest 449 517 34,000  Level Atlanta Center
12:41AM 32.9014 -85.2414 232° Southwest 439 505 34,000  Level Atlanta Center
12:42AM 32.8311 -85.3589 235° Southwest 439 505 34,000  Level Atlanta Center
12:43AM 32.7569 -85.4764 233° Southwest 439 505 34,000  Level Atlanta Center
12:44AM 32.6867 -85.5911 234° Southwest 444 511 34,000  Level Atlanta Center
12:45AM 32.6161 -85.7033 233° Southwest 444 511 34,000  Level Atlanta Center
12:46AM 32.5436 -85.8178 233° Southwest 444 511 34,000  Level Atlanta Center
12:47AM 32.4753 -85.9247 233° Southwest 450 518 34,000  Level Atlanta Center
12:48AM 32.4047 -86.0389 234° Southwest 450 518 34,000  Level Atlanta Center
12:49AM 32.3317 -86.1503 232° Southwest 445 512 34,000  Level Atlanta Center
12:50AM 32.2567 -86.2664 233° Southwest 445 512 34,000  Level Atlanta Center
12:51AM 32.1939 -86.3875 239° Southwest 445 512 34,000  Level Atlanta Center
12:52AM 32.1308 -86.5208 241° Southwest 432 497 34,000  Level Atlanta Center
12:53AM 32.0739 -86.6442 241° Southwest 432 497 34,000  Level Atlanta Center
12:54AM 32.0153 -86.7528 238° Southwest 432 497 34,000  Level Atlanta Center
12:55AM 31.9542 -86.8758 240° Southwest 438 504 34,000  Level Atlanta Center
12:56AM 31.8928 -87.0011 240° Southwest 438 504 34,000  Level Atlanta Center
12:57AM 31.8314 -87.1236 239° Southwest 438 504 34,000  Level Atlanta Center
12:59AM 31.6928 -87.4053 240° Southwest 448 516 34,000  Level Houston Center
01:00AM 31.6314 -87.5300 240° Southwest 444 511 34,000  Level Houston Center
01:01AM 31.5689 -87.6553 240° Southwest 446 513 34,000  Level Houston Center
01:02AM 31.5064 -87.7803 240° Southwest 447 514 34,000  Level Houston Center
01:03AM 31.4425 -87.9067 239° Southwest 452 520 34,000  Level Houston Center
01:04AM 31.3786 -88.0333 239° Southwest 454 522 34,000  Level Houston Center
01:05AM 31.3150 -88.1600 240° Southwest 457 526 34,000  Level Houston Center
01:06AM 31.2519 -88.2856 240° Southwest 456 525 34,000  Level Houston Center
01:07AM 31.1756 -88.4303 238° Southwest 455 524 34,000  Level Houston Center
01:08AM 31.1119 -88.5558 239° Southwest 451 519 34,000 -420 Level Houston Center
01:09AM 31.0456 -88.6814 238° Southwest 451 519 33,200 -1,500 Descending Houston Center
01:10AM 30.9786 -88.8075 238° Southwest 459 528 31,000 -2,340 Descending Houston Center
01:11AM 30.9122 -88.9369 239° Southwest 464 534 28,500 -2,400 Descending Houston Center
01:12AM 30.8519 -89.0583 240° Southwest 444 511 26,200 -2,340 Descending Houston Center
01:13AM 30.7933 -89.1725 239° Southwest 423 487 23,900 -2,160 Descending Houston Center
01:14AM 30.7372 -89.2775 238° Southwest 392 451 21,900 -2,100 Descending Houston Center
01:15AM 30.6844 -89.3814 239° Southwest 364 419 19,900 -1,920 Descending Houston Center
01:16AM 30.6364 -89.4739 239° Southwest 352 405 18,100 -1,740 Descending Houston Center
01:17AM 30.5833 -89.5625 235° Southwest 342 394 16,300 -1,740 Descending Houston Center
01:18AM 30.5297 -89.6467 234° Southwest 335 386 14,600 -1,740 Descending Houston Center
01:19AM 30.4742 -89.7211 229° Southwest 317 365 12,800 -1,680 Descending Houston Center
01:20AM 30.4197 -89.7933 229° Southwest 305 351 11,300 -1,740 Descending Houston Center
01:21AM 30.3589 -89.8756 229° Southwest 291 335 9,300 -1,500 Descending Houston Center
01:22AM 30.3217 -89.9456 238° Southwest 259 298 8,300 -1,260 Descending Houston Center
01:23AM 30.2989 -90.0236 251° West 257 296 6,800 -1,200 Descending Houston Center
01:24AM 30.2792 -90.0981 253° West 247 284 5,900 -900 Descending Houston Center
01:25AM 30.2544 -90.1622 246° West 227 261 5,000 -900 Descending Houston Center
01:26AM 30.2089 -90.1814 200° South 191 220 4,100 -1,200 Descending Houston Center
01:27AM 30.1639 -90.1950 195° South 175 201 2,700 -1,020 Descending Houston Center
01:28AM 30.1203 -90.2089 195° South 169 194 2,100 -600 Descending Houston Center
01:29AM 30.0786 -90.2231 196° South 163 188 1,500 -720 Descending Houston Center
01:30AM 30.0381 -90.2347 194° South 119 137 700 -660 Descending Houston Center
01:31AM 30.0092 -90.2450 197° South 133 153 200 -540 Descending Houston Center